Time;durP1;ratioP1;P1;durP2;ratioP2;P2;SDS_P1;SDS_P2;PMS_P1;PMS_P2;Temp;Humidity;BMP_temperature;BMP_pressure;BME280_temperature;BME280_humidity;BME280_pressure;Samples;Min_cycle;Max_cycle;Signal;HPM_P1;HPM_P2
2022/03/24 00:05:06;;;;;;;64.77;26.10;;;;;;;9.14;37.97;100035.87;4351227;82;28573;-76
2022/03/24 00:11:07;;;;;;;64.72;27.25;;;;;;;9.01;38.18;100029.93;4340989;82;28543;-76
2022/03/24 00:17:09;;;;;;;66.00;25.05;;;;;;;8.88;38.78;100026.64;4351038;80;28544;-76
2022/03/24 00:23:11;;;;;;;62.00;24.63;;;;;;;8.83;38.62;100037.95;4343625;81;28537;-76
2022/03/24 00:29:13;;;;;;;62.48;26.50;;;;;;;9.01;38.00;100029.40;4350847;81;28604;-77
2022/03/24 00:35:15;;;;;;;67.62;29.07;;;;;;;8.84;38.08;100015.97;4370864;81;28598;-78
2022/03/24 00:41:16;;;;;;;62.90;26.50;;;;;;;8.65;39.14;100007.60;4358609;80;28523;-76
2022/03/24 00:47:18;;;;;;;67.75;28.80;;;;;;;8.39;39.33;100013.55;4340632;81;28520;-78
2022/03/24 00:53:20;;;;;;;58.02;25.02;;;;;;;8.38;40.15;100012.70;4367609;81;28539;-76
2022/03/24 00:59:22;;;;;;;57.43;22.67;;;;;;;8.68;38.89;100011.23;4365596;81;28508;-76
2022/03/24 01:05:28;;;;;;;65.42;25.00;;;;;;;8.23;40.01;100021.65;4350761;81;28501;-76
2022/03/24 01:11:32;;;;;;;60.03;24.37;;;;;;;8.03;41.26;100029.99;4337510;80;28588;-76
2022/03/24 01:17:35;;;;;;;54.73;24.43;;;;;;;8.30;40.86;100016.34;4329322;81;28529;-77
2022/03/24 01:23:36;;;;;;;56.85;23.47;;;;;;;8.19;40.42;100019.55;4377943;81;28492;-78
2022/03/24 01:29:38;;;;;;;56.83;22.98;;;;;;;7.94;41.21;100020.73;4353077;80;28545;-78
2022/03/24 01:35:40;;;;;;;53.23;24.07;;;;;;;7.91;40.77;100010.91;4388019;81;28489;-77
2022/03/24 01:41:43;;;;;;;52.20;22.85;;;;;;;7.78;41.96;100003.55;4434893;80;28556;-75
2022/03/24 01:47:45;;;;;;;55.90;23.27;;;;;;;7.65;41.63;100010.91;4350183;81;28528;-75
2022/03/24 01:53:48;;;;;;;49.20;22.02;;;;;;;7.62;42.35;100007.28;4383829;81;28516;-75
2022/03/24 01:59:50;;;;;;;51.68;21.33;;;;;;;7.54;42.10;100010.37;4410325;80;28504;-75
2022/03/24 02:05:51;;;;;;;51.42;22.52;;;;;;;7.31;43.72;100015.02;4394588;81;28607;-75
2022/03/24 02:11:54;;;;;;;45.15;20.55;;;;;;;7.55;43.50;100008.55;4457376;80;28517;-75
2022/03/24 02:17:55;;;;;;;51.77;22.52;;;;;;;7.39;42.92;100013.59;4408851;80;28523;-75
2022/03/24 02:23:59;;;;;;;51.02;21.48;;;;;;;7.41;42.91;100017.43;4380588;80;28520;-74
2022/03/24 02:29:59;;;;;;;53.85;21.62;;;;;;;7.36;42.69;100019.33;4397614;79;28501;-75
2022/03/24 02:36:01;;;;;;;49.23;21.68;;;;;;;7.13;43.88;100020.23;4394090;79;28548;-74
2022/03/24 02:42:03;;;;;;;54.63;20.60;;;;;;;6.98;44.23;100013.05;4394581;79;28589;-74
2022/03/24 02:48:05;;;;;;;46.58;19.87;;;;;;;7.06;43.49;100020.14;4394027;79;28510;-77
2022/03/24 02:54:08;;;;;;;52.35;20.70;;;;;;;7.08;43.44;100030.66;4332353;81;28450;-76
2022/03/24 03:00:10;;;;;;;45.23;20.08;;;;;;;6.94;44.04;100027.80;4324175;81;28485;-75
2022/03/24 03:06:13;;;;;;;43.60;19.90;;;;;;;6.87;43.75;100040.23;4340124;81;28492;-78
2022/03/24 03:12:16;;;;;;;48.70;20.48;;;;;;;6.97;44.36;100041.29;4341495;81;28516;-76
2022/03/24 03:18:18;;;;;;;50.28;21.10;;;;;;;7.12;44.11;100052.00;4354870;80;28570;-76
2022/03/24 03:24:23;;;;;;;48.73;20.97;;;;;;;6.68;45.51;100052.28;4441533;79;28510;-77
2022/03/24 03:30:25;;;;;;;47.58;21.17;;;;;;;6.79;45.19;100047.83;4368833;80;28521;-77
2022/03/24 03:36:26;;;;;;;46.88;20.62;;;;;;;6.79;44.96;100063.02;4371338;80;28569;-77
2022/03/24 03:42:27;;;;;;;48.63;21.52;;;;;;;6.79;44.69;100067.87;4370798;80;28561;-76
2022/03/24 03:48:30;;;;;;;53.78;22.22;;;;;;;6.70;44.64;100062.27;4439019;79;28518;-75
2022/03/24 03:54:31;;;;;;;53.42;23.02;;;;;;;6.53;45.36;100077.09;4393109;80;28584;-75
2022/03/24 04:00:52;;;;;;;53.58;23.62;;;;;;;6.32;45.61;100073.76;4419085;79;28578;-75
2022/03/24 04:06:54;;;;;;;49.40;21.50;;;;;;;6.35;45.64;100085.91;4338463;80;28571;-74
2022/03/24 04:12:55;;;;;;;49.35;21.57;;;;;;;6.31;45.78;100085.45;4434169;79;44477;-74
2022/03/24 04:18:57;;;;;;;51.08;21.20;;;;;;;6.24;46.25;100091.16;4372424;80;28562;-74
2022/03/24 04:24:58;;;;;;;45.70;20.25;;;;;;;6.31;45.52;100086.78;4459479;78;43853;-75
2022/03/24 04:31:00;;;;;;;58.02;23.32;;;;;;;6.29;46.45;100103.47;4373898;80;44131;-78
2022/03/24 04:37:02;;;;;;;54.42;21.02;;;;;;;6.02;47.14;100102.13;4458478;78;28600;-74
2022/03/24 04:43:04;;;;;;;45.23;20.30;;;;;;;5.87;49.40;100114.86;4460395;78;28555;-75
2022/03/24 04:49:05;;;;;;;42.58;19.98;;;;;;;6.13;48.36;100110.59;4348069;80;28633;-78
2022/03/24 04:55:07;;;;;;;45.83;20.17;;;;;;;6.20;48.25;100120.06;4360081;81;43835;-77
2022/03/24 05:01:09;;;;;;;52.30;21.23;;;;;;;6.33;47.39;100121.31;4379006;81;44040;-76
2022/03/24 05:07:11;;;;;;;54.00;23.00;;;;;;;6.41;46.83;100119.44;4375480;80;44119;-75
2022/03/24 05:13:12;;;;;;;45.43;20.23;;;;;;;6.51;46.57;100131.22;4376368;81;28505;-82
2022/03/24 05:19:14;;;;;;;50.83;21.55;;;;;;;6.36;46.78;100130.33;4328648;81;28513;-85
2022/03/24 05:25:15;;;;;;;54.73;23.42;;;;;;;6.48;46.87;100135.59;4329254;81;28488;-81
2022/03/24 05:31:18;;;;;;;52.85;23.22;;;;;;;6.54;46.80;100141.55;4362661;81;44151;-79
2022/03/24 05:37:20;;;;;;;46.42;20.60;;;;;;;6.95;46.42;100131.06;4362966;81;28497;-81
2022/03/24 05:43:21;;;;;;;51.95;22.22;;;;;;;6.95;47.10;100137.75;4352247;81;44048;-79
2022/03/24 05:49:22;;;;;;;54.83;22.00;;;;;;;7.15;45.97;100146.60;4367549;81;28505;-82
2022/03/24 05:55:43;;;;;;;49.33;21.33;;;;;;;7.25;46.67;100148.52;4367054;81;28482;-83
2022/03/24 06:01:46;;;;;;;55.80;23.52;;;;;;;7.63;45.41;100152.13;4367699;81;28483;-81
2022/03/24 06:07:48;;;;;;;55.20;23.55;;;;;;;8.10;44.89;100151.41;4352252;81;28543;-82
2022/03/24 06:13:50;;;;;;;55.88;24.00;;;;;;;8.39;44.84;100151.55;4364260;80;28555;-77
2022/03/24 06:19:53;;;;;;;55.55;23.95;;;;;;;8.29;45.59;100158.04;4372960;80;28539;-79
2022/03/24 06:25:54;;;;;;;54.15;22.80;;;;;;;8.49;45.04;100158.78;4350752;81;28513;-79
2022/03/24 06:31:56;;;;;;;53.78;23.95;;;;;;;8.78;43.91;100164.56;4387082;80;28531;-82
2022/03/24 06:37:58;;;;;;;50.25;22.40;;;;;;;8.99;43.25;100162.05;4373698;80;28603;-83
2022/03/24 06:44:00;;;;;;;57.25;23.42;;;;;;;9.36;43.42;100166.80;4397611;80;28524;-78
2022/03/24 06:50:01;;;;;;;58.48;24.30;;;;;;;9.62;42.02;100170.17;4451033;78;28525;-81
2022/03/24 06:56:04;;;;;;;46.42;21.85;;;;;;;9.99;41.08;100168.62;4361310;81;28471;-81
2022/03/24 07:02:06;;;;;;;51.25;22.62;;;;;;;10.25;40.48;100170.28;4363906;81;28536;-81
2022/03/24 07:08:11;;;;;;;53.73;23.67;;;;;;;10.46;40.09;100178.73;4380638;81;28470;-80
2022/03/24 07:14:11;;;;;;;61.05;24.52;;;;;;;10.59;39.47;100181.98;4376808;81;28554;-83
2022/03/24 07:20:13;;;;;;;57.23;22.45;;;;;;;10.91;38.81;100177.41;4366270;81;28493;-82
2022/03/24 07:26:14;;;;;;;52.95;22.77;;;;;;;11.20;38.53;100176.70;4353031;81;28492;-82
2022/03/24 07:32:16;;;;;;;57.67;23.75;;;;;;;11.57;37.73;100179.26;4336427;80;28559;-82
2022/03/24 07:38:17;;;;;;;46.30;22.05;;;;;;;11.77;37.68;100182.44;4378499;79;28564;-83
2022/03/24 07:44:19;;;;;;;51.50;21.35;;;;;;;11.93;36.89;100184.35;4378764;79;28543;-83
2022/03/24 07:50:20;;;;;;;46.42;21.95;;;;;;;12.18;35.85;100179.11;4441234;78;28560;-84
2022/03/24 07:56:25;;;;;;;50.65;21.50;;;;;;;12.47;35.53;100183.66;4385884;80;28583;-81
2022/03/24 08:02:27;;;;;;;44.13;21.90;;;;;;;12.39;35.22;100182.04;4394368;79;28500;-80
2022/03/24 08:08:30;;;;;;;47.03;20.92;;;;;;;12.69;34.95;100177.39;4389943;79;28527;-82
2022/03/24 08:14:31;;;;;;;41.35;19.37;;;;;;;13.06;34.59;100174.02;4380319;79;28488;-82
2022/03/24 08:20:34;;;;;;;41.50;19.32;;;;;;;13.25;33.63;100178.13;4365681;80;28511;-78
2022/03/24 08:26:37;;;;;;;45.48;20.17;;;;;;;13.04;33.81;100188.27;4384433;80;28513;-80
2022/03/24 08:32:40;;;;;;;33.55;17.92;;;;;;;13.35;33.70;100190.61;4394916;80;28572;-79
2022/03/24 08:38:41;;;;;;;32.25;16.62;;;;;;;13.40;32.53;100195.36;4372038;80;28523;-79
2022/03/24 08:44:43;;;;;;;34.03;17.00;;;;;;;13.79;32.15;100186.59;4386546;80;28501;-78
2022/03/24 08:50:44;;;;;;;34.25;17.32;;;;;;;13.60;32.19;100193.87;4357559;80;28458;-73
2022/03/24 08:56:45;;;;;;;35.33;16.52;;;;;;;13.76;32.78;100190.27;4377549;80;28517;-77
2022/03/24 09:02:50;;;;;;;37.50;18.10;;;;;;;13.98;31.76;100196.59;4397045;78;28477;-76
2022/03/24 09:08:52;;;;;;;36.40;17.55;;;;;;;14.27;31.24;100186.90;4403436;78;28539;-72
2022/03/24 09:14:54;;;;;;;37.33;18.12;;;;;;;14.38;31.71;100189.89;4391416;78;28486;-74
2022/03/24 09:20:55;;;;;;;38.65;17.10;;;;;;;14.56;31.45;100189.02;4383591;79;28543;-76
2022/03/24 09:26:57;;;;;;;37.45;17.23;;;;;;;14.66;30.72;100187.94;4361267;80;28535;-75
2022/03/24 09:32:58;;;;;;;40.08;18.05;;;;;;;14.72;30.76;100188.39;4360188;80;28525;-75
2022/03/24 09:38:59;;;;;;;36.05;16.32;;;;;;;14.53;30.26;100188.94;4376588;80;28487;-75
2022/03/24 09:45:05;;;;;;;34.10;16.35;;;;;;;14.87;29.82;100187.96;4371712;80;28533;-79
2022/03/24 09:51:07;;;;;;;34.97;15.20;;;;;;;14.76;29.46;100185.53;4370786;80;28509;-73
2022/03/24 09:57:10;;;;;;;27.90;13.72;;;;;;;14.78;28.98;100191.54;4364411;80;28522;-79
2022/03/24 10:03:15;;;;;;;26.80;12.63;;;;;;;14.73;28.16;100191.94;4364593;80;28489;-81
2022/03/24 10:09:23;;;;;;;25.80;12.70;;;;;;;14.94;27.42;100190.56;4359706;80;28526;-80
2022/03/24 10:15:25;;;;;;;23.50;12.63;;;;;;;15.12;27.39;100187.48;4361181;80;28529;-81
2022/03/24 10:21:29;;;;;;;27.07;13.78;;;;;;;15.55;27.17;100186.89;4418133;78;28520;-80
2022/03/24 10:27:30;;;;;;;23.47;12.13;;;;;;;15.71;27.58;100183.98;4365224;80;28552;-80
2022/03/24 10:33:38;;;;;;;25.40;12.37;;;;;;;15.44;26.47;100192.58;4451826;78;28593;-81
2022/03/24 10:40:05;;;;;;;24.65;12.05;;;;;;;15.60;26.11;100185.11;4350180;81;28628;-82
2022/03/24 10:46:30;;;;;;;22.25;11.33;;;;;;;15.86;25.61;100179.43;4470787;78;28579;-80
2022/03/24 10:52:35;;;;;;;24.82;11.48;;;;;;;15.92;26.07;100169.00;4377716;81;28548;-79
2022/03/24 10:58:44;;;;;;;23.27;10.85;;;;;;;15.93;25.64;100163.06;4378251;81;28546;-80
2022/03/24 11:04:45;;;;;;;22.15;10.43;;;;;;;16.03;25.16;100157.84;4445549;78;28529;-80
2022/03/24 11:10:49;;;;;;;21.48;10.78;;;;;;;16.14;24.55;100156.15;4374547;80;28525;-80
2022/03/24 11:16:50;;;;;;;20.30;10.03;;;;;;;16.51;23.79;100142.77;4363244;81;28531;-81
2022/03/24 11:23:00;;;;;;;18.27;8.50;;;;;;;16.64;23.64;100138.89;4367867;81;28545;-80
2022/03/24 11:29:04;;;;;;;17.00;8.43;;;;;;;16.34;23.62;100135.39;4370784;81;28493;-80
2022/03/24 11:35:07;;;;;;;16.17;7.37;;;;;;;16.50;22.83;100126.16;4370314;81;28505;-80
2022/03/24 11:41:26;;;;;;;13.08;6.62;;;;;;;16.59;21.55;100132.32;4351752;81;28487;-80
2022/03/24 11:47:32;;;;;;;15.58;6.40;;;;;;;16.96;21.40;100114.73;4364968;81;28497;-80
2022/03/24 11:53:38;;;;;;;12.13;5.08;;;;;;;16.83;21.14;100113.72;4339174;81;28517;-81
2022/03/24 11:59:40;;;;;;;12.73;5.58;;;;;;;16.87;20.14;100125.72;4368770;80;28493;-80
2022/03/24 12:05:51;;;;;;;9.70;4.60;;;;;;;17.18;20.76;100114.01;4370147;81;28547;-81
2022/03/24 12:12:06;;;;;;;9.08;3.80;;;;;;;17.25;20.24;100105.16;4369600;81;28597;-82
2022/03/24 12:18:10;;;;;;;9.23;3.97;;;;;;;16.92;20.35;100101.37;4336929;80;28531;-82
2022/03/24 12:24:18;;;;;;;8.03;3.50;;;;;;;17.59;19.94;100094.72;4343968;80;28614;-80
2022/03/24 12:30:24;;;;;;;6.55;3.47;;;;;;;17.72;20.16;100091.37;4378658;81;28500;-81
2022/03/24 12:36:42;;;;;;;8.30;3.70;;;;;;;17.66;19.92;100085.84;4360844;81;28481;-81
2022/03/24 12:42:50;;;;;;;9.25;3.85;;;;;;;17.52;20.83;100084.03;4365851;81;28516;-81
2022/03/24 12:48:52;;;;;;;6.92;3.35;;;;;;;17.56;21.02;100088.44;4361137;81;28611;-80
2022/03/24 12:54:55;;;;;;;7.55;3.33;;;;;;;17.56;21.17;100079.75;4375415;81;28529;-81
2022/03/24 13:01:00;;;;;;;8.58;3.80;;;;;;;17.50;21.56;100074.51;4356149;81;28505;-80
2022/03/24 13:07:04;;;;;;;10.08;3.95;;;;;;;17.92;21.43;100076.65;4342834;81;28517;-81
2022/03/24 13:13:06;;;;;;;9.73;3.80;;;;;;;17.79;21.42;100062.06;4378555;81;28479;-82
2022/03/24 13:19:07;;;;;;;5.15;2.00;;;;;;;18.14;21.76;100054.58;4372413;81;28558;-80
2022/03/24 13:25:13;;;;;;;10.88;3.40;;;;;;;17.78;22.88;100059.06;4350778;82;28505;-81
2022/03/24 13:31:14;;;;;;;6.83;3.00;;;;;;;17.84;22.63;100050.70;4335655;81;28510;-80
2022/03/24 13:37:20;;;;;;;6.05;2.00;;;;;;;17.80;22.89;100044.13;4352788;82;28508;-80
2022/03/24 13:43:24;;;;;;;3.50;2.00;;;;;;;17.74;24.33;100033.45;4350578;82;28547;-81
2022/03/24 13:49:27;;;;;;;6.25;2.12;;;;;;;17.89;24.44;100030.89;4337295;82;28486;-81
2022/03/24 13:55:32;;;;;;;7.50;2.33;;;;;;;18.27;24.51;100027.49;4348088;80;28551;-81
2022/03/24 14:01:34;;;;;;;4.28;1.90;;;;;;;18.48;24.75;100022.50;4343202;82;28557;-80
2022/03/24 14:07:59;;;;;;;5.85;2.15;;;;;;;18.25;24.82;100009.52;4439841;78;28521;-81
2022/03/24 14:14:13;;;;;;;6.22;2.27;;;;;;;18.22;24.83;100018.22;4334744;82;28505;-81
2022/03/24 14:20:15;;;;;;;5.80;2.50;;;;;;;18.31;24.94;100008.19;4337545;81;28496;-81
2022/03/24 14:26:17;;;;;;;5.60;2.33;;;;;;;18.16;25.14;100009.70;4368271;81;28494;-81
2022/03/24 14:32:22;;;;;;;33.65;3.02;;;;;;;18.32;24.99;100004.39;4365788;81;28508;-81
2022/03/24 14:38:23;;;;;;;7.45;2.75;;;;;;;17.98;25.52;100013.59;4365423;81;28486;-79
2022/03/24 14:44:25;;;;;;;9.75;2.33;;;;;;;18.25;25.25;99995.08;4368878;81;28533;-81
2022/03/24 14:50:28;;;;;;;6.47;2.55;;;;;;;18.38;25.27;99987.86;4364459;81;28626;-80
2022/03/24 14:56:29;;;;;;;5.55;2.47;;;;;;;18.36;25.35;99985.91;4347653;81;28543;-80
2022/03/24 15:02:30;;;;;;;6.10;2.52;;;;;;;18.29;25.58;99989.94;4346986;81;28499;-81
2022/03/24 15:08:31;;;;;;;7.70;3.00;;;;;;;18.48;25.36;99974.86;4355796;81;28506;-79
2022/03/24 15:20:54;;;;;;;8.53;2.95;;;;;;;18.23;25.90;99983.11;4371519;79;28560;-74
2022/03/24 15:26:55;;;;;;;5.10;3.08;;;;;;;18.29;25.72;99973.61;4312296;80;28501;-75
2022/03/24 15:32:56;;;;;;;8.65;3.20;;;;;;;18.22;26.09;99972.47;4357962;80;28547;-75
2022/03/24 15:38:58;;;;;;;6.33;2.85;;;;;;;18.57;25.89;99969.73;4345888;80;28548;-75
2022/03/24 15:44:59;;;;;;;6.47;3.00;;;;;;;18.06;26.30;99971.52;4352021;80;28653;-75
2022/03/24 15:57:18;;;;;;;8.98;3.22;;;;;;;18.29;26.28;99966.80;4598453;75;86666;-77
2022/03/24 16:03:19;;;;;;;5.22;2.65;;;;;;;18.50;26.19;99979.49;4504097;77;28527;-79
2022/03/24 16:09:21;;;;;;;8.43;3.37;;;;;;;18.28;26.39;99981.50;4507988;76;28517;-79
2022/03/24 16:15:22;;;;;;;9.80;3.37;;;;;;;17.84;26.79;99982.70;4534122;76;28516;-76
2022/03/24 16:21:23;;;;;;;6.10;2.60;;;;;;;17.65;26.97;99979.52;4537810;77;28455;-76
2022/03/24 16:27:25;;;;;;;5.72;2.60;;;;;;;18.16;26.43;99975.69;4556957;76;28476;-78
2022/03/24 16:33:26;;;;;;;6.87;2.40;;;;;;;17.59;26.97;99979.16;4539539;77;28575;-76
2022/03/24 16:39:28;;;;;;;6.15;2.12;;;;;;;17.65;26.89;99987.67;4422362;77;28546;-78
2022/03/24 16:45:29;;;;;;;5.70;2.20;;;;;;;17.37;27.15;99980.00;4347514;79;28524;-77
2022/03/24 16:51:31;;;;;;;7.28;2.50;;;;;;;17.33;27.29;99981.59;4500430;77;28570;-82
2022/03/24 16:57:32;;;;;;;6.83;3.02;;;;;;;17.34;27.45;99981.04;4528735;77;28503;-75
2022/03/24 17:03:34;;;;;;;9.23;2.98;;;;;;;17.26;27.62;99993.19;4517302;77;28557;-77
2022/03/24 17:09:35;;;;;;;9.28;3.65;;;;;;;17.26;27.73;99998.62;4508989;76;28578;-76
2022/03/24 17:15:37;;;;;;;12.45;4.10;;;;;;;17.08;28.02;99993.79;4516194;76;28461;-79
2022/03/24 17:21:41;;;;;;;9.15;3.83;;;;;;;17.18;28.11;99994.45;4525388;77;28539;-80
2022/03/24 17:27:43;;;;;;;6.20;2.92;;;;;;;17.12;28.27;100003.59;4521006;77;28503;-80
2022/03/24 17:33:44;;;;;;;9.25;3.62;;;;;;;16.92;28.49;100013.62;4527183;77;28541;-79
2022/03/24 17:39:46;;;;;;;9.30;4.42;;;;;;;16.82;28.82;100010.23;4512636;77;28503;-79
2022/03/24 17:45:51;;;;;;;8.73;4.53;;;;;;;16.76;29.09;100008.50;4515577;77;28527;-79
2022/03/24 17:51:54;;;;;;;10.10;4.42;;;;;;;16.46;29.48;100025.42;4522115;76;28547;-82
2022/03/24 17:57:57;;;;;;;12.20;4.50;;;;;;;16.55;29.52;100027.98;4542679;77;28574;-79
2022/03/24 18:03:59;;;;;;;11.78;4.40;;;;;;;16.25;29.88;100028.30;4547110;76;28590;-78
2022/03/24 18:10:07;;;;;;;17.23;5.97;;;;;;;16.22;29.84;100030.16;4548766;76;28550;-78
2022/03/24 18:16:10;;;;;;;14.00;5.87;;;;;;;16.16;29.96;100046.33;4517785;77;28538;-80
2022/03/24 18:22:13;;;;;;;11.18;5.58;;;;;;;16.21;29.99;100044.25;4524989;77;28469;-77
2022/03/24 18:28:14;;;;;;;14.53;6.30;;;;;;;16.01;30.38;100048.23;4539515;76;28534;-78
2022/03/24 18:34:17;;;;;;;12.70;5.97;;;;;;;16.00;30.41;100053.36;4518873;77;28489;-79
2022/03/24 18:40:18;;;;;;;14.60;7.00;;;;;;;15.88;30.50;100053.40;4514282;77;28546;-76
2022/03/24 18:46:20;;;;;;;13.95;6.37;;;;;;;15.77;30.70;100055.59;4542095;76;28547;-76
2022/03/24 18:52:22;;;;;;;19.02;7.62;;;;;;;15.76;30.87;100062.08;4515817;77;28510;-78
2022/03/24 18:58:23;;;;;;;18.87;8.78;;;;;;;15.67;30.87;100067.06;4504965;77;28485;-78
2022/03/24 19:04:27;;;;;;;20.88;9.45;;;;;;;15.59;31.06;100072.34;4501952;77;28484;-83
2022/03/24 19:10:29;;;;;;;20.75;8.73;;;;;;;15.26;31.71;100074.32;4509054;77;28527;-81
2022/03/24 19:16:31;;;;;;;21.48;9.73;;;;;;;15.37;31.50;100074.03;4495790;77;28504;-80
2022/03/24 19:22:32;;;;;;;24.30;9.50;;;;;;;15.14;31.97;100085.15;4501812;77;28519;-78
2022/03/24 19:28:33;;;;;;;27.27;10.15;;;;;;;15.17;32.08;100086.05;4498143;77;28489;-77
2022/03/24 19:34:37;;;;;;;23.73;10.45;;;;;;;14.94;32.46;100085.51;4494929;77;28515;-81
2022/03/24 19:40:38;;;;;;;22.37;9.70;;;;;;;14.83;32.59;100088.48;4476681;77;28573;-77
2022/03/24 19:46:41;;;;;;;22.42;10.63;;;;;;;14.73;32.71;100089.88;4501695;77;28484;-79
2022/03/24 19:52:42;;;;;;;28.67;11.20;;;;;;;14.80;32.48;100095.73;4503409;77;28503;-80
2022/03/24 19:58:44;;;;;;;24.50;10.18;;;;;;;14.48;33.31;100100.88;4474731;77;28536;-76
2022/03/24 20:04:48;;;;;;;28.20;9.75;;;;;;;14.35;33.53;100104.05;4531526;76;28532;-76
2022/03/24 20:10:50;;;;;;;25.48;9.20;;;;;;;14.38;33.05;100104.67;4492444;77;28518;-77
2022/03/24 20:16:53;;;;;;;23.32;9.25;;;;;;;14.17;33.47;100110.34;4513381;77;28537;-76
2022/03/24 20:22:54;;;;;;;20.08;9.68;;;;;;;13.91;33.59;100108.30;4513178;77;28475;-77
2022/03/24 20:28:56;;;;;;;24.47;9.05;;;;;;;13.58;34.09;100118.13;4523123;77;28516;-77
2022/03/24 20:34:57;;;;;;;23.15;9.40;;;;;;;13.34;34.76;100116.58;4496057;77;28592;-77
2022/03/24 20:41:01;;;;;;;24.47;9.18;;;;;;;13.04;34.86;100119.97;4519826;77;28495;-78
2022/03/24 20:47:03;;;;;;;23.45;9.93;;;;;;;12.63;36.51;100124.31;4516286;77;28611;-78
2022/03/24 20:53:09;;;;;;;21.73;8.80;;;;;;;12.46;36.53;100126.71;4522832;77;28591;-80
2022/03/24 20:59:11;;;;;;;21.37;8.85;;;;;;;12.32;36.16;100125.95;4514194;77;28538;-76
2022/03/24 21:05:14;;;;;;;24.05;9.15;;;;;;;12.09;36.74;100123.78;4510755;77;28517;-77
2022/03/24 21:11:16;;;;;;;24.77;9.58;;;;;;;11.92;37.75;100130.15;4506426;77;28462;-79
2022/03/24 21:17:17;;;;;;;23.05;9.58;;;;;;;11.86;37.23;100134.52;4528898;77;28518;-79
2022/03/24 21:23:19;;;;;;;20.37;9.33;;;;;;;11.41;38.21;100133.40;4499595;77;28545;-78
2022/03/24 21:29:21;;;;;;;23.20;9.05;;;;;;;11.25;38.52;100129.28;4483040;77;28634;-78
2022/03/24 21:35:24;;;;;;;24.37;9.20;;;;;;;11.23;38.35;100137.25;4515976;77;28523;-76
2022/03/24 21:41:28;;;;;;;21.10;8.90;;;;;;;10.83;39.63;100155.03;4522260;77;28601;-76
2022/03/24 21:47:30;;;;;;;22.22;8.63;;;;;;;10.82;39.91;100148.00;4518313;77;28485;-76
2022/03/24 21:53:31;;;;;;;21.05;8.90;;;;;;;10.72;40.24;100146.23;4481409;77;28504;-77
2022/03/24 21:59:33;;;;;;;22.45;8.88;;;;;;;10.57;40.78;100147.75;4476420;77;28537;-76
2022/03/24 22:05:34;;;;;;;24.92;10.90;;;;;;;10.62;40.88;100143.11;4485319;77;28506;-75
2022/03/24 22:11:35;;;;;;;25.88;10.13;;;;;;;10.41;40.71;100143.08;4480303;77;28493;-77
2022/03/24 22:17:36;;;;;;;22.62;9.20;;;;;;;10.23;40.89;100140.91;4485079;77;28531;-76
2022/03/24 22:23:37;;;;;;;20.25;9.60;;;;;;;10.17;41.65;100133.66;4508198;77;28484;-78
2022/03/24 22:29:39;;;;;;;24.55;10.82;;;;;;;10.38;41.67;100134.02;4505310;77;28513;-78
2022/03/24 22:35:40;;;;;;;24.92;10.30;;;;;;;10.33;41.13;100138.66;4479189;77;28532;-78
2022/03/24 22:41:42;;;;;;;27.42;9.88;;;;;;;10.15;42.70;100132.52;4481940;76;28565;-78
2022/03/24 22:47:43;;;;;;;23.75;10.93;;;;;;;10.31;41.65;100126.48;4478639;77;28468;-77
2022/03/24 22:53:45;;;;;;;24.70;10.98;;;;;;;9.96;43.18;100131.41;4484690;76;28525;-77
2022/03/24 22:59:47;;;;;;;31.25;11.60;;;;;;;9.97;42.98;100133.57;4522320;76;28522;-77
2022/03/24 23:05:48;;;;;;;33.23;12.23;;;;;;;9.87;43.31;100133.95;4518147;76;28534;-77
2022/03/24 23:11:50;;;;;;;32.08;11.78;;;;;;;9.86;43.17;100135.80;4512758;77;28508;-78
2022/03/24 23:17:51;;;;;;;26.35;10.60;;;;;;;9.60;43.93;100131.11;4522435;77;28534;-79
2022/03/24 23:23:53;;;;;;;26.50;11.30;;;;;;;9.76;43.49;100135.33;4518300;77;28477;-78
2022/03/24 23:29:54;;;;;;;23.22;10.45;;;;;;;9.42;44.36;100127.08;4483042;77;28508;-77
2022/03/24 23:35:55;;;;;;;33.08;12.98;;;;;;;9.37;44.69;100135.40;4503424;77;28540;-77
2022/03/24 23:41:56;;;;;;;33.78;13.78;;;;;;;9.56;44.23;100133.36;4512739;77;28518;-75
2022/03/24 23:47:57;;;;;;;32.00;13.95;;;;;;;9.35;45.23;100136.95;4526122;77;28502;-77
2022/03/24 23:53:59;;;;;;;36.10;15.00;;;;;;;9.32;45.48;100130.62;4518744;77;28566;-75
